createdAt,value
2023-04-25T00:00:07.841Z,74.54
2023-04-25T00:02:39.556Z,74.62
2023-04-25T00:05:12.653Z,75.17
2023-04-25T00:07:44.772Z,74.97
2023-04-25T00:10:18.253Z,75.08
2023-04-25T00:12:50.343Z,75.71
2023-04-25T00:15:22.310Z,75.89
2023-04-25T00:17:54.798Z,76.48
2023-04-25T00:20:26.797Z,76.77
2023-04-25T00:22:58.636Z,77.11
2023-04-25T00:25:31.818Z,76.81
2023-04-25T00:28:03.639Z,77.01
2023-04-25T00:30:35.585Z,76.95
2023-04-25T00:33:07.532Z,77.05
2023-04-25T00:35:40.390Z,77.04
2023-04-25T00:38:12.654Z,76.63
2023-04-25T00:40:45.699Z,76.55
2023-04-25T00:43:18.654Z,76.69
2023-04-25T00:45:56.793Z,76.74
2023-04-25T00:48:28.509Z,76.48
2023-04-25T00:51:03.483Z,75.95
2023-04-25T00:53:37.719Z,76.29
2023-04-25T00:56:11.140Z,76.31
2023-04-25T00:58:44.443Z,76.07
2023-04-25T01:01:17.528Z,76.37
2023-04-25T01:03:52.020Z,75.92
2023-04-25T01:06:24.346Z,76.19
2023-04-25T01:08:56.893Z,76.15
2023-04-25T01:11:30.135Z,76.76
2023-04-25T01:14:03.500Z,76.92
2023-04-25T01:16:35.468Z,76.68
2023-04-25T01:19:11.984Z,77.05
2023-04-25T01:21:45.063Z,76.73
2023-04-25T01:24:17.785Z,76.99
2023-04-25T01:26:51.653Z,76.97
2023-04-25T01:29:25.213Z,77.03
2023-04-25T01:31:59.263Z,77.13
2023-04-25T01:34:30.953Z,76.94
2023-04-25T01:37:05.551Z,77.03
2023-04-25T01:39:38.095Z,76.96
2023-04-25T01:42:10.072Z,77.36
2023-04-25T01:44:41.900Z,77.56
2023-04-25T01:47:13.769Z,77.55
2023-04-25T01:49:45.804Z,77.28
2023-04-25T01:52:18.828Z,77.60
2023-04-25T01:54:51.739Z,77.75
2023-04-25T01:57:23.584Z,77.94
2023-04-25T01:59:56.994Z,78.08
2023-04-25T02:02:28.986Z,77.97
2023-04-25T02:05:00.660Z,78.03
2023-04-25T02:07:33.964Z,78.34
2023-04-25T02:10:05.749Z,78.22
2023-04-25T02:12:37.820Z,78.67
2023-04-25T02:15:12.505Z,78.33
2023-04-25T02:17:46.151Z,78.60
2023-04-25T02:20:18.887Z,78.62
2023-04-25T02:22:52.076Z,79.11
2023-04-25T02:25:24.645Z,79.64
2023-04-25T02:27:56.452Z,80.60
2023-04-25T02:30:28.278Z,80.90
2023-04-25T02:33:00.385Z,81.59
2023-04-25T02:35:32.324Z,81.95
2023-04-25T02:38:05.583Z,82.57
2023-04-25T02:40:37.466Z,82.79
2023-04-25T02:43:09.461Z,82.93
2023-04-25T02:45:41.334Z,83.62
2023-04-25T02:48:13.115Z,82.40
2023-04-25T02:50:45.679Z,81.82
2023-04-25T02:53:18.633Z,81.52
2023-04-25T02:55:50.682Z,80.72
2023-04-25T02:58:24.405Z,80.06
2023-04-25T03:00:56.116Z,79.82
2023-04-25T03:03:28.141Z,79.64
2023-04-25T03:05:59.867Z,79.18
2023-04-25T03:08:33.670Z,78.62
2023-04-25T03:11:05.522Z,78.36
2023-04-25T03:13:37.450Z,77.60
2023-04-25T03:16:10.877Z,77.59
2023-04-25T03:18:42.496Z,77.42
2023-04-25T03:21:15.741Z,77.34
2023-04-25T03:23:48.936Z,77.26
2023-04-25T03:26:21.460Z,77.22
2023-04-25T03:28:53.285Z,76.98
2023-04-25T03:31:25.208Z,77.00
2023-04-25T03:33:57.124Z,78.18
2023-04-25T03:36:30.510Z,77.98
2023-04-25T03:39:03.960Z,78.15
2023-04-25T03:41:37.404Z,79.08
2023-04-25T03:44:10.690Z,78.54
2023-04-25T03:46:42.561Z,78.98
2023-04-25T03:49:17.150Z,78.76
2023-04-25T03:51:51.116Z,78.42
2023-04-25T03:54:24.060Z,79.10
2023-04-25T03:56:55.922Z,78.53
2023-04-25T03:59:28.009Z,78.76
2023-04-25T04:02:00.431Z,78.24
2023-04-25T04:04:32.238Z,77.60
2023-04-25T04:07:03.965Z,77.48
2023-04-25T04:09:36.954Z,77.38
2023-04-25T04:12:09.824Z,78.12
2023-04-25T04:14:42.027Z,78.46
2023-04-25T04:17:13.636Z,78.12
2023-04-25T04:19:45.962Z,78.08
2023-04-25T04:22:17.814Z,78.00
2023-04-25T04:24:50.974Z,77.35
2023-04-25T04:27:24.321Z,76.67
2023-04-25T04:29:57.083Z,77.27
2023-04-25T04:32:28.974Z,77.41
2023-04-25T04:35:00.632Z,77.41
2023-04-25T04:37:32.337Z,77.15
2023-04-25T04:40:06.241Z,76.90
2023-04-25T04:42:38.169Z,76.85
2023-04-25T04:45:12.122Z,76.31
2023-04-25T04:47:44.234Z,75.66
2023-04-25T04:50:17.138Z,75.43
2023-04-25T04:52:49.228Z,75.72
2023-04-25T04:55:22.495Z,75.47
2023-04-25T04:57:54.624Z,75.33
2023-04-25T05:00:27.893Z,75.51
2023-04-25T05:03:02.046Z,75.45
2023-04-25T05:05:34.119Z,74.96
2023-04-25T05:08:06.079Z,74.86
2023-04-25T05:10:39.137Z,74.22
2023-04-25T05:13:10.974Z,73.96
2023-04-25T05:15:42.965Z,73.67
2023-04-25T05:18:15.063Z,73.92
2023-04-25T05:20:46.997Z,74.64
2023-04-25T05:23:18.867Z,73.99
2023-04-25T05:25:52.167Z,73.91
2023-04-25T05:28:24.034Z,73.36
2023-04-25T05:30:55.977Z,73.05
2023-04-25T05:33:27.786Z,72.69
2023-04-25T05:35:59.699Z,72.65
2023-04-25T05:38:33.968Z,72.90
2023-04-25T05:41:09.205Z,73.51
2023-04-25T05:43:46.022Z,72.36
2023-04-25T05:46:18.471Z,72.13
2023-04-25T05:48:50.153Z,71.58
2023-04-25T05:51:22.344Z,71.57
2023-04-25T05:53:54.077Z,70.65
2023-04-25T05:56:27.622Z,69.75
2023-04-25T05:58:59.516Z,68.98
2023-04-25T06:01:29.352Z,69.37
2023-04-25T06:04:01.359Z,68.79
2023-04-25T06:06:33.716Z,68.15
2023-04-25T06:09:05.404Z,67.66
2023-04-25T06:11:38.359Z,67.96
2023-04-25T06:14:10.182Z,67.86
2023-04-25T06:16:42.087Z,67.55
2023-04-25T06:19:13.989Z,66.13
2023-04-25T06:21:47.288Z,66.52
2023-04-25T06:24:19.116Z,66.55
2023-04-25T06:26:52.352Z,65.61
2023-04-25T06:29:25.283Z,63.72
2023-04-25T06:31:58.071Z,63.14
2023-04-25T06:34:29.914Z,61.96
2023-04-25T06:37:01.853Z,61.56
2023-04-25T06:39:33.793Z,62.47
2023-04-25T06:42:06.970Z,62.05
2023-04-25T06:44:38.804Z,61.46
2023-04-25T06:47:11.106Z,59.95
2023-04-25T06:49:42.780Z,58.84
2023-04-25T06:52:14.557Z,59.43
2023-04-25T06:54:46.435Z,60.47
2023-04-25T06:57:19.723Z,58.21
2023-04-25T06:59:51.658Z,60.53
2023-04-25T07:02:23.748Z,60.90
2023-04-25T07:04:57.259Z,59.94
2023-04-25T07:07:29.794Z,58.49
2023-04-25T07:10:01.729Z,58.74
2023-04-25T07:12:34.923Z,58.39
2023-04-25T07:15:09.069Z,59.47
2023-04-25T07:17:40.719Z,60.37
2023-04-25T07:20:12.643Z,59.35
2023-04-25T07:22:44.956Z,59.30
2023-04-25T07:25:17.328Z,58.77
2023-04-25T07:27:50.279Z,58.84
2023-04-25T07:30:22.212Z,59.23
2023-04-25T07:32:54.081Z,59.02
2023-04-25T07:35:25.941Z,60.72
2023-04-25T07:37:57.756Z,61.44
2023-04-25T07:40:30.207Z,61.59
2023-04-25T07:43:03.345Z,61.07
2023-04-25T07:45:35.281Z,62.12
2023-04-25T07:48:07.300Z,61.13
2023-04-25T07:50:39.235Z,61.13
2023-04-25T07:53:11.227Z,62.18
2023-04-25T07:55:43.106Z,61.72
2023-04-25T07:58:16.532Z,62.06
2023-04-25T08:00:48.614Z,62.19
2023-04-25T08:03:20.802Z,61.86
2023-04-25T08:05:53.364Z,62.08
2023-04-25T08:08:25.302Z,60.89
2023-04-25T08:11:00.236Z,60.47
2023-04-25T08:13:33.539Z,60.71
2023-04-25T08:16:05.419Z,60.07
2023-04-25T08:18:37.278Z,59.18
2023-04-25T08:21:12.415Z,58.26
2023-04-25T08:23:44.450Z,56.79
2023-04-25T08:26:16.386Z,58.21
2023-04-25T08:28:50.834Z,57.64
2023-04-25T08:31:23.202Z,56.52
2023-04-25T08:33:55.458Z,55.79
2023-04-25T08:36:38.722Z,55.63
2023-04-25T08:39:14.285Z,55.29
2023-04-25T08:41:50.037Z,54.81
2023-04-25T08:44:25.610Z,55.52
2023-04-25T08:47:00.526Z,55.32
2023-04-25T08:49:34.397Z,55.83
2023-04-25T08:52:08.799Z,54.56
2023-04-25T08:54:44.477Z,54.87
2023-04-25T08:57:20.280Z,54.93
2023-04-25T08:59:53.885Z,52.84
2023-04-25T09:02:26.711Z,54.46
2023-04-25T09:05:00.299Z,54.54
2023-04-25T09:07:33.594Z,54.73
2023-04-25T09:10:05.860Z,55.86
2023-04-25T09:12:38.801Z,56.40
2023-04-25T09:15:20.550Z,57.15
2023-04-25T09:18:02.844Z,55.91
2023-04-25T09:20:59.496Z,55.88
2023-04-25T09:23:33.866Z,55.86
2023-04-25T09:26:09.139Z,54.05
2023-04-25T09:28:40.730Z,54.31
2023-04-25T09:31:23.120Z,56.59
2023-04-25T09:34:03.423Z,52.69
2023-04-25T09:36:38.305Z,52.36
2023-04-25T09:39:20.419Z,54.89
2023-04-25T09:41:57.381Z,53.45
2023-04-25T09:44:29.503Z,51.21
2023-04-25T09:47:03.848Z,50.56
2023-04-25T09:49:35.504Z,50.58
2023-04-25T09:52:07.353Z,49.36
2023-04-25T09:54:39.236Z,45.39
2023-04-25T09:57:17.976Z,44.85
2023-04-25T09:59:52.706Z,43.01
2023-04-25T10:02:30.054Z,44.76
2023-04-25T10:05:04.865Z,45.73
2023-04-25T10:07:39.177Z,44.28
2023-04-25T10:10:16.310Z,46.71
2023-04-25T10:12:49.386Z,48.54
2023-04-25T10:15:21.578Z,46.89
2023-04-25T10:17:55.699Z,47.31
2023-04-25T10:20:28.515Z,47.27
2023-04-25T10:23:06.750Z,47.20
2023-04-25T10:25:39.193Z,48.65
2023-04-25T10:28:11.474Z,49.37
2023-04-25T10:30:59.325Z,47.42
2023-04-25T10:33:44.974Z,47.37
2023-04-25T10:36:19.753Z,47.55
2023-04-25T10:38:55.285Z,47.20
2023-04-25T10:41:27.884Z,48.61
2023-04-25T10:44:08.717Z,47.83
2023-04-25T10:46:41.360Z,47.86
2023-04-25T10:49:30.268Z,49.08
2023-04-25T10:52:26.298Z,49.97
2023-04-25T10:55:00.020Z,49.30
2023-04-25T10:57:41.956Z,49.10
2023-04-25T11:00:25.912Z,50.28
2023-04-25T11:03:04.434Z,49.55
2023-04-25T11:05:55.223Z,50.44
2023-04-25T11:08:49.492Z,50.00
2023-04-25T11:11:22.480Z,49.08
2023-04-25T11:13:54.734Z,48.49
2023-04-25T11:16:32.043Z,47.74
2023-04-25T11:19:04.106Z,47.47
2023-04-25T11:21:37.184Z,46.12
2023-04-25T11:24:09.040Z,48.40
2023-04-25T11:26:45.076Z,47.70
2023-04-25T11:29:16.917Z,47.94
2023-04-25T11:31:51.232Z,47.50
2023-04-25T11:34:23.528Z,46.82
2023-04-25T11:36:56.855Z,44.02
2023-04-25T11:39:30.990Z,46.39
2023-04-25T11:42:03.866Z,43.11
2023-04-25T11:44:39.678Z,44.70
2023-04-25T11:47:11.304Z,45.51
2023-04-25T11:49:43.252Z,43.74
2023-04-25T11:52:16.225Z,44.11
2023-04-25T11:54:50.844Z,45.78
2023-04-25T11:57:24.977Z,47.44
2023-04-25T11:59:57.359Z,46.81
2023-04-25T12:02:31.921Z,48.65
2023-04-25T12:05:29.374Z,49.09
2023-04-25T12:08:11.391Z,50.81
2023-04-25T12:10:45.269Z,48.35
2023-04-25T12:13:29.511Z,48.54
2023-04-25T12:16:02.317Z,48.66
2023-04-25T12:18:37.654Z,50.16
2023-04-25T12:21:11.518Z,50.48
2023-04-25T12:23:45.625Z,51.45
2023-04-25T12:26:18.103Z,51.87
2023-04-25T12:28:52.184Z,51.40
2023-04-25T12:31:24.272Z,49.95
2023-04-25T12:33:55.866Z,48.90
2023-04-25T12:36:28.643Z,47.62
2023-04-25T12:39:05.121Z,48.91
2023-04-25T12:41:36.984Z,46.64
2023-04-25T12:44:09.021Z,45.28
2023-04-25T12:46:42.682Z,46.70
2023-04-25T12:49:18.694Z,47.11
2023-04-25T12:51:52.613Z,46.64
2023-04-25T12:54:26.521Z,46.41
2023-04-25T12:56:59.182Z,47.95
2023-04-25T12:59:31.426Z,49.29
2023-04-25T13:02:03.896Z,49.53
2023-04-25T13:04:35.727Z,49.19
2023-04-25T13:07:07.642Z,45.76
2023-04-25T13:09:40.688Z,44.37
2023-04-25T13:12:12.502Z,43.04
2023-04-25T13:14:44.367Z,42.23
2023-04-25T13:17:16.278Z,42.00
2023-04-25T13:19:48.363Z,43.85
2023-04-25T13:22:21.131Z,44.39
2023-04-25T13:24:54.408Z,43.33
2023-04-25T13:27:26.282Z,45.08
2023-04-25T13:29:58.218Z,45.24
2023-04-25T13:32:30.062Z,45.48
2023-04-25T13:35:03.726Z,46.25
2023-04-25T13:37:37.884Z,45.25
2023-04-25T13:40:12.817Z,45.76
2023-04-25T13:42:46.352Z,47.64
2023-04-25T13:45:18.502Z,47.46
2023-04-25T13:47:50.899Z,47.85
2023-04-25T13:50:23.096Z,48.35
2023-04-25T13:52:55.054Z,48.87
2023-04-25T13:55:28.151Z,49.97
2023-04-25T13:58:00.276Z,50.07
2023-04-25T14:00:32.389Z,50.99
2023-04-25T14:03:08.000Z,49.90
2023-04-25T14:05:42.029Z,48.34
2023-04-25T14:08:14.709Z,49.17
2023-04-25T14:10:47.680Z,49.66
2023-04-25T14:13:19.526Z,50.26
2023-04-25T14:15:52.319Z,52.63
2023-04-25T14:18:24.451Z,56.01
2023-04-25T14:20:56.271Z,60.82
2023-04-25T14:23:28.104Z,60.20
2023-04-25T14:26:01.487Z,59.84
2023-04-25T14:28:33.103Z,61.21
2023-04-25T14:31:04.988Z,60.94
2023-04-25T14:33:38.151Z,59.30
2023-04-25T14:36:10.145Z,60.74
2023-04-25T14:38:41.915Z,58.15
2023-04-25T14:41:14.977Z,58.05
2023-04-25T14:43:46.862Z,54.93
2023-04-25T14:46:18.816Z,53.23
2023-04-25T14:48:54.210Z,53.08
2023-04-25T14:51:27.369Z,52.03
2023-04-25T14:53:59.255Z,51.31
2023-04-25T14:56:32.249Z,51.68
2023-04-25T14:59:04.119Z,49.61
2023-04-25T15:01:37.134Z,49.37
2023-04-25T15:04:11.737Z,51.37
2023-04-25T15:06:43.809Z,52.06
2023-04-25T15:09:19.245Z,52.88
2023-04-25T15:11:52.943Z,54.57
2023-04-25T15:14:24.621Z,59.73
2023-04-25T15:16:56.620Z,60.75
2023-04-25T15:19:28.406Z,60.72
2023-04-25T15:22:02.403Z,58.90
2023-04-25T15:24:34.983Z,59.32
2023-04-25T15:27:08.592Z,58.85
2023-04-25T15:29:41.073Z,57.53
2023-04-25T15:32:30.513Z,58.41
2023-04-25T15:35:04.321Z,58.24
2023-04-25T15:37:36.306Z,58.50
2023-04-25T15:40:13.610Z,58.85
2023-04-25T15:42:48.811Z,57.48
2023-04-25T15:45:21.775Z,56.89
2023-04-25T15:47:55.038Z,56.33
2023-04-25T15:50:27.577Z,54.70
2023-04-25T15:52:59.257Z,54.88
2023-04-25T15:55:31.052Z,53.07
2023-04-25T15:58:04.434Z,52.14
2023-04-25T16:00:37.920Z,53.06
2023-04-25T16:03:09.940Z,52.47
2023-04-25T16:05:43.063Z,50.89
2023-04-25T16:08:14.656Z,49.98
2023-04-25T16:10:46.588Z,51.66
2023-04-25T16:13:19.783Z,54.32
2023-04-25T16:15:51.830Z,55.65
2023-04-25T16:18:23.592Z,59.28
2023-04-25T16:20:55.331Z,58.33
2023-04-25T16:23:27.476Z,59.69
2023-04-25T16:25:59.167Z,58.97
2023-04-25T16:28:32.108Z,60.09
2023-04-25T16:31:04.070Z,59.31
2023-04-25T16:33:38.464Z,58.66
2023-04-25T16:36:12.912Z,59.86
2023-04-25T16:38:45.021Z,59.37
2023-04-25T16:41:16.913Z,58.37
2023-04-25T16:43:49.873Z,59.61
2023-04-25T16:46:23.669Z,57.56
2023-04-25T16:48:55.380Z,57.55
2023-04-25T16:51:28.043Z,57.63
2023-04-25T16:54:00.042Z,57.46
2023-04-25T16:56:31.803Z,58.08
2023-04-25T16:59:04.904Z,59.04
2023-04-25T17:01:37.208Z,58.63
2023-04-25T17:04:08.938Z,58.50
2023-04-25T17:06:40.667Z,58.38
2023-04-25T17:09:12.635Z,57.65
2023-04-25T17:11:44.451Z,58.51
2023-04-25T17:14:17.423Z,58.26
2023-04-25T17:16:49.586Z,58.17
2023-04-25T17:19:21.639Z,56.59
2023-04-25T17:21:54.125Z,56.17
2023-04-25T17:24:26.184Z,56.36
2023-04-25T17:26:57.850Z,55.94
2023-04-25T17:29:32.839Z,56.71
2023-04-25T17:32:04.991Z,56.48
2023-04-25T17:34:37.531Z,55.83
2023-04-25T17:37:15.054Z,55.29
2023-04-25T17:39:46.849Z,55.26
2023-04-25T17:42:18.897Z,55.30
2023-04-25T17:44:52.406Z,55.12
2023-04-25T17:47:24.672Z,55.73
2023-04-25T17:49:56.591Z,56.16
2023-04-25T17:52:29.262Z,56.68
2023-04-25T17:55:02.523Z,56.25
2023-04-25T17:57:34.133Z,56.66
2023-04-25T18:00:09.186Z,56.30
2023-04-25T18:02:45.239Z,56.66
2023-04-25T18:05:17.746Z,56.69
2023-04-25T18:07:48.475Z,57.32
2023-04-25T18:10:20.352Z,56.17
2023-04-25T18:12:52.217Z,56.53
2023-04-25T18:15:25.239Z,57.07
2023-04-25T18:17:58.094Z,56.68
2023-04-25T18:20:30.005Z,57.91
2023-04-25T18:23:02.651Z,58.32
2023-04-25T18:25:34.576Z,56.88
2023-04-25T18:28:06.509Z,57.33
2023-04-25T18:30:40.076Z,57.57
2023-04-25T18:33:11.956Z,57.21
2023-04-25T18:35:55.360Z,57.17
2023-04-25T18:41:18.229Z,57.58
2023-04-25T18:44:01.207Z,57.83
2023-04-25T18:46:35.003Z,57.35
2023-04-25T18:49:06.978Z,57.56
2023-04-25T18:51:38.723Z,58.15
2023-04-25T18:54:11.922Z,58.64
2023-04-25T18:56:43.752Z,58.54
2023-04-25T18:59:17.153Z,58.36
2023-04-25T19:01:51.892Z,58.55
2023-04-25T19:04:23.598Z,58.36
2023-04-25T19:06:55.523Z,58.55
2023-04-25T19:09:27.421Z,59.58
2023-04-25T19:11:59.878Z,59.36
2023-04-25T19:14:34.300Z,59.91
2023-04-25T19:17:07.446Z,59.86
2023-04-25T19:19:39.264Z,59.43
2023-04-25T19:22:11.651Z,59.31
2023-04-25T19:24:43.227Z,59.17
2023-04-25T19:27:15.227Z,58.99
2023-04-25T19:29:48.290Z,59.05
2023-04-25T19:32:22.552Z,59.45
2023-04-25T19:34:54.481Z,59.41
2023-04-25T19:37:26.664Z,60.00
2023-04-25T19:39:58.304Z,59.65
2023-04-25T19:42:31.586Z,59.91
2023-04-25T19:45:03.492Z,59.97
2023-04-25T19:47:38.307Z,59.88
2023-04-25T19:50:13.907Z,59.47
2023-04-25T19:52:45.876Z,59.55
2023-04-25T19:55:18.048Z,59.84
2023-04-25T19:57:50.117Z,60.70
2023-04-25T20:00:26.789Z,60.45
2023-04-25T20:02:59.893Z,59.60
2023-04-25T20:05:32.174Z,60.44
2023-04-25T20:08:05.737Z,61.00
2023-04-25T20:10:37.656Z,60.38
2023-04-25T20:13:10.555Z,60.54
2023-04-25T20:15:42.562Z,60.40
2023-04-25T20:18:15.896Z,60.50
2023-04-25T20:20:47.874Z,60.62
2023-04-25T20:23:22.260Z,61.25
2023-04-25T20:25:54.146Z,61.48
2023-04-25T20:28:27.375Z,61.34
2023-04-25T20:30:59.030Z,61.72
2023-04-25T20:33:32.084Z,61.56
2023-04-25T20:36:03.992Z,61.40
2023-04-25T20:38:35.958Z,61.70
2023-04-25T20:41:07.916Z,61.69
2023-04-25T20:43:40.363Z,61.36
2023-04-25T20:46:12.326Z,61.69
2023-04-25T20:48:45.746Z,61.55
2023-04-25T20:51:18.130Z,61.47
2023-04-25T20:53:49.996Z,62.44
2023-04-25T20:56:21.826Z,62.51
2023-04-25T20:58:58.054Z,62.00
2023-04-25T21:01:30.213Z,61.97
2023-04-25T21:04:03.653Z,62.43
2023-04-25T21:06:37.226Z,62.07
2023-04-25T21:09:09.683Z,61.21
2023-04-25T21:11:41.586Z,61.14
2023-04-25T21:14:14.075Z,61.84
2023-04-25T21:16:46.099Z,62.11
2023-04-25T21:19:19.137Z,62.59
2023-04-25T21:21:50.908Z,62.42
2023-04-25T21:24:22.912Z,62.51
2023-04-25T21:26:54.565Z,62.70
2023-04-25T21:29:26.302Z,62.54
2023-04-25T21:31:58.262Z,62.91
2023-04-25T21:34:31.226Z,63.31
2023-04-25T21:37:03.364Z,63.30
2023-04-25T21:39:35.376Z,63.22
2023-04-25T21:42:08.960Z,63.36
2023-04-25T21:44:40.724Z,63.40
2023-04-25T21:47:12.342Z,64.16
2023-04-25T21:49:45.432Z,64.03
2023-04-25T21:52:18.186Z,64.41
2023-04-25T21:54:49.767Z,64.36
2023-04-25T21:57:22.342Z,64.40
2023-04-25T21:59:54.520Z,64.55
2023-04-25T22:02:27.368Z,64.87
2023-04-25T22:05:00.401Z,65.32
2023-04-25T22:07:32.031Z,65.33
2023-04-25T22:10:05.412Z,65.02
2023-04-25T22:12:37.391Z,65.63
2023-04-25T22:15:12.609Z,65.45
2023-04-25T22:17:44.729Z,65.67
2023-04-25T22:20:22.682Z,65.53
2023-04-25T22:22:55.486Z,65.75
2023-04-25T22:25:27.378Z,65.80
2023-04-25T22:27:59.847Z,65.68
2023-04-25T22:30:32.098Z,66.10
2023-04-25T22:33:03.701Z,66.01
2023-04-25T22:35:36.691Z,66.27
2023-04-25T22:38:08.692Z,66.65
2023-04-25T22:40:40.518Z,66.50
2023-04-25T22:43:12.958Z,67.50
2023-04-25T22:45:44.826Z,66.87
2023-04-25T22:48:16.844Z,66.52
2023-04-25T22:50:49.824Z,67.35
2023-04-25T22:53:21.684Z,67.21
2023-04-25T22:56:00.008Z,67.18
2023-04-25T22:58:33.954Z,67.03
2023-04-25T23:01:06.763Z,66.58
2023-04-25T23:03:40.270Z,67.21
2023-04-25T23:06:14.278Z,67.46
2023-04-25T23:08:46.097Z,67.46
2023-04-25T23:11:17.928Z,67.61
2023-04-25T23:13:49.881Z,67.59
2023-04-25T23:16:22.165Z,67.73
2023-04-25T23:18:53.857Z,68.38
2023-04-25T23:21:27.105Z,68.07
2023-04-25T23:23:58.980Z,68.02
2023-04-25T23:26:30.782Z,68.38
2023-04-25T23:29:02.651Z,68.37
2023-04-25T23:31:34.588Z,68.27
2023-04-25T23:34:06.610Z,68.48
2023-04-25T23:36:40.399Z,68.44
2023-04-25T23:39:13.565Z,68.38
2023-04-25T23:41:45.432Z,68.82
2023-04-25T23:44:17.379Z,68.96
2023-04-25T23:46:49.216Z,68.97
2023-04-25T23:49:21.110Z,68.85
2023-04-25T23:51:54.065Z,68.96
2023-04-25T23:54:26.644Z,69.75
2023-04-25T23:56:58.186Z,70.10
2023-04-25T23:59:30.048Z,70.00
